Time;durP1;ratioP1;P1;durP2;ratioP2;P2;SDS_P1;SDS_P2;PMS_P1;PMS_P2;Temp;Humidity;BMP_temperature;BMP_pressure;BME280_temperature;BME280_humidity;BME280_pressure;Samples;Min_cycle;Max_cycle;Signal;HPM_P1;HPM_P2
2021/06/20 00:01:20;;;;;;;9.50;5.40;;;25.00;99.70;;;;;;5055194;28;20509;-67
2021/06/20 00:03:46;;;;;;;10.40;5.60;;;25.00;99.70;;;;;;5049258;28;20948;-68
2021/06/20 00:06:25;;;;;;;9.90;5.47;;;24.90;99.70;;;;;;5049117;28;20478;-68
2021/06/20 00:08:51;;;;;;;10.73;5.23;;;24.90;99.70;;;;;;5065070;28;20950;-68
2021/06/20 00:11:18;;;;;;;10.40;5.80;;;24.80;99.70;;;;;;5068770;28;20451;-67
2021/06/20 00:13:45;;;;;;;10.87;5.20;;;24.70;99.70;;;;;;5069449;28;20462;-68
2021/06/20 00:16:11;;;;;;;9.70;4.93;;;24.70;99.70;;;;;;5053902;28;20475;-68
2021/06/20 00:18:40;;;;;;;9.63;5.00;;;24.80;99.70;;;;;;5049271;28;20817;-67
2021/06/20 00:21:06;;;;;;;10.83;5.33;;;25.00;99.70;;;;;;5060870;28;20449;-67
2021/06/20 00:23:34;;;;;;;12.10;5.77;;;25.00;99.70;;;;;;5049516;28;20462;-67
2021/06/20 00:26:00;;;;;;;10.73;5.33;;;24.80;99.70;;;;;;5049126;28;20470;-68
2021/06/20 00:28:27;;;;;;;10.93;5.80;;;24.70;99.70;;;;;;5054978;28;20955;-68
2021/06/20 00:30:54;;;;;;;8.70;4.73;;;24.70;99.70;;;;;;5058591;28;20460;-68
2021/06/20 00:33:21;;;;;;;9.97;5.13;;;24.60;99.70;;;;;;5053308;28;20450;-68
2021/06/20 00:35:49;;;;;;;9.70;5.33;;;24.50;99.70;;;;;;5064271;28;20479;-68
2021/06/20 00:38:16;;;;;;;11.33;5.23;;;24.40;99.70;;;;;;5050948;28;20471;-68
2021/06/20 00:40:43;;;;;;;12.37;5.73;;;24.40;99.70;;;;;;5061178;28;20453;-68
2021/06/20 00:43:09;;;;;;;13.53;5.30;;;24.40;99.70;;;;;;5070684;28;20469;-67
2021/06/20 00:45:36;;;;;;;12.33;5.67;;;24.30;99.70;;;;;;5052404;28;20444;-68
2021/06/20 00:48:03;;;;;;;11.90;5.70;;;24.30;99.70;;;;;;5052657;28;20447;-68
2021/06/20 00:50:30;;;;;;;9.47;5.63;;;24.20;99.70;;;;;;5065424;28;20458;-68
2021/06/20 00:53:00;;;;;;;13.70;6.00;;;24.20;99.70;;;;;;5053784;28;20474;-68
2021/06/20 00:55:28;;;;;;;10.60;5.63;;;24.20;99.70;;;;;;5052180;28;20475;-68
2021/06/20 00:57:56;;;;;;;12.23;5.27;;;24.20;99.70;;;;;;5052689;28;20448;-68
2021/06/20 01:00:23;;;;;;;11.67;5.53;;;24.20;99.70;;;;;;5064356;28;20446;-68
2021/06/20 01:02:49;;;;;;;12.17;5.47;;;24.20;99.70;;;;;;5052495;28;20443;-68
2021/06/20 01:05:16;;;;;;;9.43;4.93;;;24.20;99.70;;;;;;5068272;28;20443;-68
2021/06/20 01:07:44;;;;;;;10.23;5.20;;;24.30;99.70;;;;;;5072229;28;20466;-67
2021/06/20 01:10:13;;;;;;;8.40;4.93;;;24.30;99.70;;;;;;5066600;28;20439;-67
2021/06/20 01:12:40;;;;;;;10.10;4.80;;;24.50;99.70;;;;;;5052129;28;20443;-68
2021/06/20 01:15:08;;;;;;;10.53;5.17;;;24.60;99.70;;;;;;5064834;28;20481;-68
2021/06/20 01:17:36;;;;;;;15.47;5.00;;;24.60;99.70;;;;;;5072076;28;20466;-68
2021/06/20 01:20:05;;;;;;;9.70;4.73;;;24.70;99.70;;;;;;5061359;28;20471;-68
2021/06/20 01:22:35;;;;;;;10.33;4.37;;;24.60;99.70;;;;;;5071961;28;20840;-68
2021/06/20 01:25:05;;;;;;;10.07;3.90;;;24.60;99.70;;;;;;5064194;28;20435;-68
2021/06/20 01:27:34;;;;;;;8.30;4.13;;;24.70;99.70;;;;;;5071650;28;20850;-68
2021/06/20 01:30:03;;;;;;;7.87;4.30;;;24.70;99.70;;;;;;5061455;28;20452;-67
2021/06/20 01:32:30;;;;;;;8.30;4.10;;;24.70;99.70;;;;;;5071946;28;20454;-67
2021/06/20 01:34:58;;;;;;;10.40;5.10;;;24.70;99.70;;;;;;5059180;28;20984;-68
2021/06/20 01:37:25;;;;;;;11.90;4.13;;;24.70;99.70;;;;;;5051859;28;20467;-68
2021/06/20 01:39:53;;;;;;;12.60;4.37;;;24.70;99.70;;;;;;5060932;28;20458;-68
2021/06/20 01:42:20;;;;;;;7.10;3.20;;;24.70;99.70;;;;;;5062393;28;20471;-67
2021/06/20 01:44:49;;;;;;;10.50;3.87;;;24.70;99.70;;;;;;5070901;28;20451;-68
2021/06/20 01:47:17;;;;;;;6.47;3.50;;;24.60;99.70;;;;;;5069929;28;20475;-68
2021/06/20 01:49:44;;;;;;;9.03;4.10;;;24.60;99.70;;;;;;5069913;28;20461;-67
2021/06/20 01:52:11;;;;;;;9.47;4.00;;;24.70;99.70;;;;;;5052254;28;20515;-68
2021/06/20 01:54:49;;;;;;;8.80;3.83;;;24.70;99.70;;;;;;5069623;28;20439;-67
2021/06/20 01:57:18;;;;;;;5.90;3.40;;;24.70;99.70;;;;;;5071135;28;20477;-67
2021/06/20 01:59:45;;;;;;;10.63;3.80;;;24.70;99.70;;;;;;5053535;28;20447;-67
2021/06/20 02:02:11;;;;;;;12.33;3.37;;;24.80;99.70;;;;;;5051495;28;20450;-66
2021/06/20 02:04:38;;;;;;;6.33;3.23;;;24.70;99.70;;;;;;5051478;28;20879;-67
2021/06/20 02:07:07;;;;;;;12.37;3.63;;;24.60;99.70;;;;;;5051062;28;20467;-67
2021/06/20 02:09:34;;;;;;;9.20;3.57;;;24.60;99.70;;;;;;5067082;28;21019;-67
2021/06/20 02:12:01;;;;;;;6.47;3.20;;;24.60;99.70;;;;;;5053245;28;20450;-68
2021/06/20 02:14:29;;;;;;;9.27;3.40;;;24.60;99.70;;;;;;5063218;28;20529;-67
2021/06/20 02:16:55;;;;;;;10.40;4.47;;;24.60;99.70;;;;;;5050252;28;20487;-68
2021/06/20 02:19:22;;;;;;;8.30;3.07;;;24.60;99.70;;;;;;5051478;28;20455;-68
2021/06/20 02:21:49;;;;;;;7.27;3.60;;;24.60;99.70;;;;;;5066424;28;20900;-68
2021/06/20 02:24:16;;;;;;;6.30;3.33;;;24.60;99.70;;;;;;5058361;28;20444;-68
2021/06/20 02:26:43;;;;;;;7.03;3.33;;;24.60;99.70;;;;;;5050862;28;20463;-67
2021/06/20 02:29:09;;;;;;;10.37;3.53;;;24.60;99.70;;;;;;5061418;28;20442;-67
2021/06/20 02:31:37;;;;;;;9.00;3.50;;;24.50;99.70;;;;;;5063528;28;20443;-68
2021/06/20 02:34:04;;;;;;;7.33;3.20;;;24.50;99.70;;;;;;5070352;28;20443;-66
2021/06/20 02:36:31;;;;;;;8.27;4.10;;;24.50;99.70;;;;;;5070581;28;20512;-68
2021/06/20 02:38:58;;;;;;;6.83;3.40;;;24.50;99.70;;;;;;5062631;28;20501;-68
2021/06/20 02:41:24;;;;;;;9.90;3.67;;;24.40;99.70;;;;;;5062071;28;20450;-68
2021/06/20 02:43:51;;;;;;;5.73;2.93;;;24.40;99.70;;;;;;5063763;28;20443;-67
2021/06/20 02:46:18;;;;;;;7.83;3.47;;;24.30;99.70;;;;;;5049941;28;20460;-68
2021/06/20 02:48:46;;;;;;;9.83;4.30;;;24.40;99.70;;;;;;5061556;28;20746;-68
2021/06/20 02:51:13;;;;;;;9.30;3.30;;;24.20;99.70;;;;;;5060393;28;20455;-67
2021/06/20 02:53:39;;;;;;;8.37;3.60;;;24.20;99.70;;;;;;5054179;28;20446;-68
2021/06/20 02:56:06;;;;;;;6.13;3.10;;;24.20;99.70;;;;;;5069792;28;20482;-67
2021/06/20 02:58:33;;;;;;;7.13;3.63;;;24.30;99.70;;;;;;5067632;28;20835;-67
2021/06/20 03:00:59;;;;;;;9.10;3.40;;;24.30;99.70;;;;;;5056218;28;20943;-68
2021/06/20 03:03:26;;;;;;;9.43;3.30;;;24.30;99.70;;;;;;5069511;28;20517;-68
2021/06/20 03:05:54;;;;;;;9.90;3.77;;;24.30;99.70;;;;;;5050981;28;21003;-67
2021/06/20 03:08:21;;;;;;;6.00;3.00;;;24.30;99.70;;;;;;5049915;28;20454;-68
2021/06/20 03:10:48;;;;;;;7.33;3.23;;;24.30;99.70;;;;;;5069380;28;20450;-68
2021/06/20 03:13:14;;;;;;;10.43;6.03;;;24.20;99.70;;;;;;5070312;28;20520;-67
2021/06/20 03:15:43;;;;;;;8.87;3.60;;;24.20;99.70;;;;;;5050244;28;20480;-68
2021/06/20 03:18:10;;;;;;;7.43;3.03;;;24.20;99.70;;;;;;5050119;28;20783;-68
2021/06/20 03:20:36;;;;;;;6.87;3.30;;;24.10;99.70;;;;;;5062661;28;20903;-68
2021/06/20 03:23:07;;;;;;;6.57;3.13;;;24.10;99.70;;;;;;5050651;28;20462;-68
2021/06/20 03:25:34;;;;;;;9.30;3.70;;;24.10;99.70;;;;;;5049650;28;20448;-68
2021/06/20 03:28:01;;;;;;;7.03;3.40;;;24.10;99.70;;;;;;5049950;28;20463;-68
2021/06/20 03:30:28;;;;;;;10.20;3.80;;;24.00;99.70;;;;;;5061517;28;21160;-68
2021/06/20 03:32:54;;;;;;;8.70;3.60;;;24.00;99.70;;;;;;5049734;28;20451;-67
2021/06/20 03:35:21;;;;;;;5.93;3.53;;;24.00;99.70;;;;;;5062300;28;20577;-68
2021/06/20 03:37:48;;;;;;;7.40;3.30;;;24.00;99.70;;;;;;5067696;28;20443;-68
2021/06/20 03:40:17;;;;;;;7.97;3.67;;;23.90;99.70;;;;;;5068915;28;20447;-68
2021/06/20 03:42:44;;;;;;;6.47;3.37;;;23.80;99.70;;;;;;5049418;28;20448;-68
2021/06/20 03:45:11;;;;;;;13.57;3.93;;;23.80;99.70;;;;;;5049560;28;20986;-68
2021/06/20 03:47:39;;;;;;;11.60;3.60;;;23.80;99.70;;;;;;5049107;28;20452;-68
2021/06/20 03:50:07;;;;;;;9.13;4.30;;;23.80;99.70;;;;;;5059133;28;20448;-68
2021/06/20 03:52:34;;;;;;;7.23;3.27;;;23.80;99.70;;;;;;5049865;28;20454;-68
2021/06/20 03:55:01;;;;;;;8.20;3.37;;;23.80;99.70;;;;;;5055745;28;20442;-68
2021/06/20 03:57:29;;;;;;;7.90;3.00;;;23.90;99.70;;;;;;5069097;28;20486;-68
2021/06/20 03:59:56;;;;;;;8.03;3.10;;;23.90;99.70;;;;;;5069076;28;20979;-68
2021/06/20 04:02:23;;;;;;;8.90;3.30;;;23.90;99.70;;;;;;5051925;28;20448;-68
2021/06/20 04:04:50;;;;;;;13.17;3.67;;;23.90;99.70;;;;;;5054217;28;20446;-68
2021/06/20 04:07:16;;;;;;;8.07;2.93;;;23.90;99.70;;;;;;5069199;28;20466;-68
2021/06/20 04:09:44;;;;;;;5.70;3.13;;;23.90;99.70;;;;;;5061941;28;20523;-68
2021/06/20 04:12:13;;;;;;;8.30;3.80;;;23.90;99.70;;;;;;5064589;28;20447;-68
2021/06/20 04:14:43;;;;;;;10.80;3.90;;;23.80;99.70;;;;;;5069385;28;20513;-68
2021/06/20 04:17:10;;;;;;;7.60;3.43;;;23.80;99.70;;;;;;5052362;28;21032;-68
2021/06/20 04:19:37;;;;;;;10.70;3.40;;;23.80;99.70;;;;;;5061270;28;20596;-68
2021/06/20 04:22:04;;;;;;;8.80;3.90;;;23.80;99.70;;;;;;5058897;28;20451;-68
2021/06/20 04:24:32;;;;;;;6.53;3.60;;;23.70;99.70;;;;;;5065930;28;20439;-68
2021/06/20 04:26:59;;;;;;;8.10;3.10;;;23.70;99.70;;;;;;5072738;28;20462;-68
2021/06/20 04:29:25;;;;;;;7.80;3.40;;;23.70;99.70;;;;;;5067200;28;20454;-68
2021/06/20 04:31:53;;;;;;;5.20;3.17;;;23.80;99.70;;;;;;5065152;28;20446;-68
2021/06/20 04:34:20;;;;;;;4.63;2.80;;;23.90;99.70;;;;;;5067932;28;20819;-67
2021/06/20 04:36:47;;;;;;;5.00;3.07;;;23.90;99.70;;;;;;5052846;28;20486;-68
2021/06/20 04:39:14;;;;;;;6.93;3.00;;;23.90;99.70;;;;;;5070996;28;20454;-68
2021/06/20 04:41:41;;;;;;;5.40;2.87;;;23.90;99.70;;;;;;5061939;28;20444;-68
2021/06/20 04:44:42;;;;;;;11.10;3.30;;;23.90;99.70;;;;;;5054054;28;20451;-66
2021/06/20 04:47:09;;;;;;;4.80;2.77;;;23.80;99.70;;;;;;5072442;28;20542;-68
2021/06/20 04:49:36;;;;;;;5.60;3.10;;;23.70;99.70;;;;;;5067395;28;20455;-68
2021/06/20 04:52:05;;;;;;;14.30;3.30;;;23.70;99.70;;;;;;5057944;28;20450;-68
2021/06/20 04:54:33;;;;;;;4.83;2.67;;;23.80;99.70;;;;;;5052461;28;20448;-68
2021/06/20 04:56:59;;;;;;;9.00;3.60;;;23.80;99.70;;;;;;5052426;28;20531;-68
2021/06/20 04:59:26;;;;;;;5.60;2.90;;;23.80;99.70;;;;;;5054556;28;20494;-68
2021/06/20 05:01:53;;;;;;;5.17;2.83;;;23.90;99.70;;;;;;5060342;28;20447;-68
2021/06/20 05:04:21;;;;;;;6.30;2.70;;;23.90;99.70;;;;;;5052552;28;20951;-68
2021/06/20 05:06:47;;;;;;;6.90;2.50;;;23.90;99.70;;;;;;5060174;28;20475;-67
2021/06/20 05:09:14;;;;;;;4.50;2.20;;;23.80;99.70;;;;;;5052951;28;20447;-68
2021/06/20 05:11:41;;;;;;;4.23;2.93;;;23.80;99.70;;;;;;5052374;28;20463;-68
2021/06/20 05:14:08;;;;;;;7.50;2.90;;;23.70;99.70;;;;;;5055833;28;20973;-67
2021/06/20 05:16:34;;;;;;;5.93;4.60;;;23.80;99.70;;;;;;5071178;28;20486;-68
2021/06/20 05:19:01;;;;;;;5.90;2.67;;;23.90;99.70;;;;;;5068280;28;20436;-68
2021/06/20 05:21:33;;;;;;;4.80;2.40;;;23.90;99.70;;;;;;5070209;28;20469;-68
2021/06/20 05:24:00;;;;;;;5.90;3.00;;;23.80;99.70;;;;;;5071690;28;20533;-68
2021/06/20 05:26:27;;;;;;;4.47;2.30;;;23.70;99.70;;;;;;5071476;28;21174;-68
2021/06/20 05:28:53;;;;;;;5.53;3.00;;;23.70;99.70;;;;;;5069159;28;20452;-68
2021/06/20 05:31:20;;;;;;;9.17;2.83;;;23.70;99.70;;;;;;5052094;28;20452;-68
2021/06/20 05:33:47;;;;;;;5.97;2.80;;;23.70;99.70;;;;;;5054085;28;20447;-68
2021/06/20 05:36:13;;;;;;;5.67;3.10;;;23.70;99.70;;;;;;5071737;28;20478;-68
2021/06/20 05:38:41;;;;;;;7.57;2.50;;;23.80;99.70;;;;;;5070977;28;20466;-68
2021/06/20 05:41:08;;;;;;;6.47;2.80;;;23.90;99.70;;;;;;5051870;28;20798;-68
2021/06/20 05:43:35;;;;;;;6.33;2.63;;;24.00;99.70;;;;;;5051431;28;20443;-68
2021/06/20 05:46:02;;;;;;;4.73;2.80;;;24.10;99.70;;;;;;5051719;28;20467;-67
2021/06/20 05:48:28;;;;;;;7.00;2.77;;;24.10;99.70;;;;;;5059771;28;20439;-68
2021/06/20 05:50:55;;;;;;;7.50;2.47;;;24.10;99.70;;;;;;5070598;28;20834;-67
2021/06/20 05:53:22;;;;;;;6.00;2.77;;;24.10;99.70;;;;;;5071235;28;20934;-68
2021/06/20 05:55:50;;;;;;;6.40;2.60;;;24.10;99.70;;;;;;5070818;28;20867;-67
2021/06/20 05:58:16;;;;;;;6.07;2.70;;;24.10;99.70;;;;;;5071626;28;20483;-68
2021/06/20 06:00:43;;;;;;;4.10;2.50;;;24.00;99.70;;;;;;5070489;28;20454;-67
2021/06/20 06:03:10;;;;;;;4.20;2.60;;;24.00;99.70;;;;;;5057507;28;20474;-68
2021/06/20 06:05:37;;;;;;;6.07;2.77;;;24.10;99.70;;;;;;5051069;28;20448;-68
2021/06/20 06:08:04;;;;;;;6.03;2.50;;;24.10;99.70;;;;;;5051146;28;20470;-68
2021/06/20 06:10:31;;;;;;;5.97;2.87;;;24.10;99.70;;;;;;5067402;28;20820;-68
2021/06/20 06:12:59;;;;;;;3.40;2.23;;;24.10;99.70;;;;;;5070793;28;20973;-68
2021/06/20 06:15:27;;;;;;;4.30;2.57;;;24.10;99.70;;;;;;5054753;28;20444;-67
2021/06/20 06:17:54;;;;;;;8.83;2.70;;;24.30;99.70;;;;;;5069580;28;20481;-68
2021/06/20 06:20:21;;;;;;;5.53;2.47;;;24.60;99.70;;;;;;5071003;28;20953;-68
2021/06/20 06:22:49;;;;;;;5.13;2.63;;;24.90;99.70;;;;;;5060866;28;20448;-68
2021/06/20 06:25:16;;;;;;;9.37;2.50;;;24.90;99.70;;;;;;5056332;28;20438;-69
2021/06/20 06:27:44;;;;;;;5.53;2.50;;;25.10;99.70;;;;;;5071047;28;20458;-68
2021/06/20 06:30:13;;;;;;;5.03;2.30;;;25.30;99.70;;;;;;5060667;28;20450;-68
2021/06/20 06:32:42;;;;;;;4.93;2.33;;;25.40;99.70;;;;;;5071147;28;20446;-69
2021/06/20 06:35:10;;;;;;;5.37;2.67;;;25.30;99.70;;;;;;5070068;28;20542;-68
2021/06/20 06:37:39;;;;;;;3.60;2.37;;;25.10;99.70;;;;;;5070820;28;20489;-69
2021/06/20 06:40:08;;;;;;;3.60;2.30;;;25.30;99.70;;;;;;5068565;28;20454;-68
2021/06/20 06:42:35;;;;;;;7.33;2.53;;;25.30;99.70;;;;;;5070805;28;20679;-68
2021/06/20 06:45:02;;;;;;;8.13;2.57;;;24.90;99.70;;;;;;5058682;28;20822;-67
2021/06/20 06:47:31;;;;;;;3.30;2.10;;;24.80;99.70;;;;;;5055828;28;21009;-68
2021/06/20 06:49:58;;;;;;;3.53;2.23;;;24.90;99.70;;;;;;5060068;28;20447;-68
2021/06/20 06:52:24;;;;;;;6.60;2.03;;;24.80;99.70;;;;;;5061175;28;20454;-68
2021/06/20 06:54:51;;;;;;;2.53;1.80;;;24.70;99.70;;;;;;5058848;28;20450;-68
2021/06/20 06:57:19;;;;;;;3.90;2.17;;;24.80;99.70;;;;;;5059724;28;20486;-68
2021/06/20 06:59:45;;;;;;;4.23;2.10;;;24.70;99.70;;;;;;5058856;28;20462;-68
2021/06/20 07:02:12;;;;;;;6.10;2.27;;;24.50;99.70;;;;;;5052349;28;20455;-68
2021/06/20 07:04:41;;;;;;;4.40;2.40;;;24.40;99.70;;;;;;5050568;28;20438;-68
2021/06/20 07:07:08;;;;;;;3.67;1.90;;;24.30;99.70;;;;;;5057485;28;20914;-69
2021/06/20 07:09:35;;;;;;;4.70;2.20;;;24.50;99.70;;;;;;5050977;28;20453;-68
2021/06/20 07:12:01;;;;;;;3.27;2.00;;;24.30;99.70;;;;;;5053857;28;20469;-68
2021/06/20 07:14:29;;;;;;;4.60;2.10;;;24.40;99.70;;;;;;5053882;28;20443;-68
2021/06/20 07:16:56;;;;;;;4.37;2.10;;;24.40;99.70;;;;;;5057074;28;20502;-68
2021/06/20 07:19:22;;;;;;;4.33;2.27;;;24.30;99.70;;;;;;5049853;28;20537;-68
2021/06/20 07:21:51;;;;;;;4.40;2.10;;;24.40;99.70;;;;;;5050640;28;20448;-68
2021/06/20 07:24:18;;;;;;;3.37;1.90;;;24.40;99.70;;;;;;5049478;28;20823;-68
2021/06/20 07:26:44;;;;;;;2.90;2.00;;;24.30;99.70;;;;;;5056063;28;20887;-68
2021/06/20 07:29:11;;;;;;;2.77;1.80;;;24.30;99.70;;;;;;5069899;28;20446;-68
2021/06/20 07:31:38;;;;;;;4.70;2.13;;;24.40;99.70;;;;;;5064729;28;20443;-68
2021/06/20 07:34:05;;;;;;;3.87;1.93;;;24.50;99.70;;;;;;5048701;28;20457;-67
2021/06/20 07:36:31;;;;;;;3.23;2.03;;;24.60;99.70;;;;;;5053226;28;20467;-68
2021/06/20 07:39:02;;;;;;;4.53;1.90;;;24.60;99.70;;;;;;5069470;28;20954;-68
2021/06/20 07:41:28;;;;;;;3.80;2.27;;;24.50;99.70;;;;;;5069528;28;20450;-68
2021/06/20 07:43:55;;;;;;;3.43;2.20;;;24.40;99.70;;;;;;5069766;28;20954;-68
2021/06/20 07:46:22;;;;;;;3.30;1.97;;;24.40;99.70;;;;;;5066181;28;20465;-68
2021/06/20 07:48:49;;;;;;;5.90;2.47;;;24.50;99.70;;;;;;5049238;28;20446;-69
2021/06/20 07:51:16;;;;;;;4.03;2.40;;;24.60;99.70;;;;;;5066751;28;20447;-68
2021/06/20 07:53:42;;;;;;;2.80;1.97;;;24.70;99.70;;;;;;5068535;28;20454;-68
2021/06/20 07:56:10;;;;;;;5.60;2.30;;;24.60;99.70;;;;;;5068617;28;20474;-68
2021/06/20 07:58:37;;;;;;;4.00;2.10;;;24.60;99.70;;;;;;5069543;28;20507;-68
2021/06/20 08:01:04;;;;;;;5.13;2.10;;;24.50;99.70;;;;;;5064238;28;20451;-67
2021/06/20 08:03:33;;;;;;;2.70;1.67;;;24.20;99.70;;;;;;5069819;28;20446;-67
2021/06/20 08:06:00;;;;;;;4.00;2.30;;;24.30;99.70;;;;;;5057226;28;20550;-67
2021/06/20 08:08:27;;;;;;;5.30;2.57;;;24.30;99.70;;;;;;5047167;28;20444;-67
2021/06/20 08:10:54;;;;;;;3.27;2.20;;;24.50;99.70;;;;;;5046533;28;20471;-67
2021/06/20 08:13:22;;;;;;;5.10;2.27;;;24.40;99.70;;;;;;5049155;28;20446;-66
2021/06/20 08:15:49;;;;;;;3.33;1.90;;;24.40;99.70;;;;;;5052527;28;20470;-68
2021/06/20 08:18:16;;;;;;;3.50;2.20;;;24.50;99.70;;;;;;5062174;28;20475;-68
2021/06/20 08:20:43;;;;;;;6.23;2.30;;;24.40;99.70;;;;;;5067039;28;20454;-67
2021/06/20 08:23:10;;;;;;;3.40;2.03;;;24.60;99.70;;;;;;5059084;28;20460;-67
2021/06/20 08:25:37;;;;;;;4.87;2.20;;;24.60;99.70;;;;;;5057709;28;20469;-67
2021/06/20 08:28:04;;;;;;;3.27;1.73;;;24.70;99.70;;;;;;5058614;28;20955;-67
2021/06/20 08:30:32;;;;;;;3.80;2.40;;;24.70;99.70;;;;;;5059637;28;20444;-66
2021/06/20 08:33:00;;;;;;;3.00;1.93;;;24.70;99.70;;;;;;5057451;28;20453;-67
2021/06/20 08:35:27;;;;;;;5.10;2.60;;;24.80;99.70;;;;;;5058579;28;20950;-66
2021/06/20 08:37:54;;;;;;;4.97;2.33;;;24.70;99.70;;;;;;5059158;28;20481;-67
2021/06/20 08:40:21;;;;;;;2.90;1.87;;;24.50;99.70;;;;;;5057259;28;20535;-67
2021/06/20 08:42:48;;;;;;;4.53;2.10;;;24.30;99.70;;;;;;5056560;28;20446;-68
2021/06/20 08:45:15;;;;;;;6.73;2.10;;;24.30;99.70;;;;;;5055032;28;20914;-68
2021/06/20 08:47:44;;;;;;;4.70;2.00;;;24.30;99.70;;;;;;5068591;28;20849;-68
2021/06/20 08:50:12;;;;;;;4.23;2.17;;;24.30;99.70;;;;;;5060409;28;20443;-68
2021/06/20 08:52:39;;;;;;;6.33;2.20;;;24.50;99.70;;;;;;5049376;28;20443;-68
2021/06/20 08:55:09;;;;;;;3.27;2.20;;;24.60;99.70;;;;;;5048490;28;20452;-68
2021/06/20 08:57:41;;;;;;;5.87;2.10;;;24.60;99.70;;;;;;5057699;28;20493;-68
2021/06/20 09:00:10;;;;;;;8.10;2.03;;;24.70;99.70;;;;;;5072081;28;20444;-68
2021/06/20 09:02:37;;;;;;;3.03;2.20;;;24.80;99.70;;;;;;5069055;28;20442;-69
2021/06/20 09:05:08;;;;;;;3.30;2.03;;;25.00;99.70;;;;;;5072385;28;20821;-67
2021/06/20 09:07:37;;;;;;;4.90;2.33;;;25.00;99.70;;;;;;5061040;28;20459;-67
2021/06/20 09:10:16;;;;;;;3.87;2.00;;;24.90;99.70;;;;;;5063734;28;20808;-67
2021/06/20 09:12:48;;;;;;;3.53;1.87;;;25.10;99.00;;;;;;5063086;28;20450;-68
2021/06/20 09:15:17;;;;;;;3.87;1.83;;;25.00;99.60;;;;;;5064342;28;20478;-68
2021/06/20 09:17:49;;;;;;;4.87;2.47;;;25.10;99.70;;;;;;5063070;28;20509;-68
2021/06/20 09:20:17;;;;;;;4.00;2.50;;;25.10;99.70;;;;;;5070591;28;20818;-68
2021/06/20 09:22:55;;;;;;;5.13;2.43;;;25.20;99.70;;;;;;5069511;28;20452;-67
2021/06/20 09:25:26;;;;;;;3.47;2.10;;;25.30;99.10;;;;;;5064856;28;20443;-67
2021/06/20 09:27:55;;;;;;;4.13;1.93;;;25.30;98.30;;;;;;5062039;28;20943;-68
2021/06/20 09:30:24;;;;;;;3.20;2.00;;;25.40;98.50;;;;;;5060008;28;20447;-67
2021/06/20 09:32:55;;;;;;;3.40;2.03;;;25.10;99.70;;;;;;5062653;28;20435;-68
2021/06/20 09:35:24;;;;;;;4.57;2.10;;;25.10;99.70;;;;;;5063258;28;20888;-68
2021/06/20 09:37:52;;;;;;;5.50;1.90;;;25.20;99.70;;;;;;5064564;28;20478;-67
2021/06/20 09:40:19;;;;;;;3.50;1.90;;;25.20;97.30;;;;;;5066520;28;20446;-67
2021/06/20 09:42:46;;;;;;;2.80;1.90;;;25.40;95.50;;;;;;5053280;28;20538;-67
2021/06/20 09:45:14;;;;;;;4.50;2.30;;;25.40;94.40;;;;;;5070930;28;20442;-67
2021/06/20 09:47:42;;;;;;;2.87;1.83;;;25.40;98.50;;;;;;5071686;28;20462;-67
2021/06/20 09:50:10;;;;;;;2.43;1.60;;;25.40;97.90;;;;;;5067907;28;20801;-67
2021/06/20 09:52:38;;;;;;;5.93;1.93;;;25.50;92.90;;;;;;5050535;28;20526;-67
2021/06/20 09:55:10;;;;;;;3.50;1.80;;;25.50;99.60;;;;;;5051797;28;20447;-66
2021/06/20 09:57:42;;;;;;;3.27;1.80;;;25.30;98.40;;;;;;5051584;28;20482;-66
2021/06/20 10:00:11;;;;;;;2.80;1.70;;;25.40;98.80;;;;;;5066679;28;20465;-65
2021/06/20 10:02:39;;;;;;;3.30;1.87;;;25.40;95.30;;;;;;5049419;28;21002;-67
2021/06/20 10:05:07;;;;;;;3.17;1.80;;;25.40;96.80;;;;;;5049672;28;20462;-67
2021/06/20 10:07:34;;;;;;;3.43;2.00;;;25.50;98.30;;;;;;5069302;28;20462;-67
2021/06/20 10:10:04;;;;;;;3.07;1.70;;;25.40;93.00;;;;;;5067443;28;20442;-67
2021/06/20 10:12:31;;;;;;;2.97;1.63;;;25.40;97.40;;;;;;5070638;28;20965;-67
2021/06/20 10:14:58;;;;;;;2.43;1.70;;;25.30;98.40;;;;;;5060257;28;20451;-66
2021/06/20 10:17:29;;;;;;;3.60;1.77;;;25.30;96.80;;;;;;5070353;28;20477;-67
2021/06/20 10:19:59;;;;;;;3.20;1.87;;;25.30;97.20;;;;;;5070257;28;20450;-66
2021/06/20 10:22:36;;;;;;;3.40;2.00;;;25.30;98.10;;;;;;5065465;28;20454;-66
2021/06/20 10:25:06;;;;;;;2.30;1.70;;;25.30;98.80;;;;;;5050543;28;20450;-67
2021/06/20 10:27:35;;;;;;;2.97;1.70;;;25.40;94.40;;;;;;5069813;28;20463;-67
2021/06/20 10:30:05;;;;;;;2.00;1.70;;;25.50;92.60;;;;;;5060882;28;20450;-66
2021/06/20 10:32:36;;;;;;;5.47;1.97;;;25.60;95.40;;;;;;5060933;28;20458;-67
2021/06/20 10:35:07;;;;;;;2.33;1.50;;;25.70;93.70;;;;;;5067243;28;20453;-66
2021/06/20 10:37:37;;;;;;;2.00;1.60;;;25.50;95.20;;;;;;5062255;28;20473;-67
2021/06/20 10:40:21;;;;;;;2.57;1.50;;;25.50;93.70;;;;;;5061379;28;20793;-68
2021/06/20 10:42:48;;;;;;;2.90;1.70;;;25.60;93.50;;;;;;5061582;28;20471;-68
2021/06/20 10:45:27;;;;;;;3.90;1.80;;;25.60;91.80;;;;;;5063664;28;20839;-68
2021/06/20 10:47:54;;;;;;;4.40;2.23;;;25.60;93.00;;;;;;5068881;28;20954;-68
2021/06/20 10:50:21;;;;;;;3.40;1.63;;;25.80;93.10;;;;;;5066659;28;20451;-68
2021/06/20 10:52:57;;;;;;;2.00;1.60;;;25.90;94.70;;;;;;5058938;28;20458;-68
2021/06/20 10:55:25;;;;;;;2.10;1.60;;;25.80;92.00;;;;;;5061034;28;20457;-68
2021/06/20 10:57:54;;;;;;;3.70;1.83;;;25.90;92.00;;;;;;5060421;28;20518;-67
2021/06/20 11:00:31;;;;;;;4.00;1.80;;;25.80;95.40;;;;;;5058041;28;21013;-67
2021/06/20 11:03:09;;;;;;;3.03;1.80;;;25.80;95.40;;;;;;5059477;28;20443;-67
2021/06/20 11:05:47;;;;;;;2.87;2.00;;;26.00;93.20;;;;;;5060056;28;20825;-68
2021/06/20 11:08:24;;;;;;;3.80;1.70;;;25.90;93.20;;;;;;5066724;28;20537;-68
2021/06/20 11:11:06;;;;;;;4.13;1.73;;;26.00;93.00;;;;;;5061584;28;20528;-67
2021/06/20 11:13:33;;;;;;;4.83;2.07;;;25.90;93.90;;;;;;5070016;28;20469;-67
2021/06/20 11:16:04;;;;;;;4.03;1.90;;;25.80;98.20;;;;;;5067360;28;21017;-67
2021/06/20 11:18:32;;;;;;;7.03;2.30;;;26.00;99.70;;;;;;5057314;28;20479;-67
2021/06/20 11:20:59;;;;;;;3.20;2.07;;;26.30;93.70;;;;;;5064130;28;20843;-67
2021/06/20 11:23:29;;;;;;;3.63;1.70;;;26.40;92.80;;;;;;5069650;28;20456;-67
2021/06/20 11:25:59;;;;;;;2.70;1.70;;;26.30;92.90;;;;;;5060204;28;20474;-67
2021/06/20 11:28:26;;;;;;;4.83;1.90;;;26.40;92.50;;;;;;5059548;28;20458;-67
2021/06/20 11:31:07;;;;;;;4.97;1.60;;;26.50;91.90;;;;;;5059255;28;20450;-67
2021/06/20 11:33:34;;;;;;;2.67;1.80;;;26.70;92.30;;;;;;5067102;28;20976;-67
2021/06/20 11:36:01;;;;;;;3.10;2.00;;;26.90;93.70;;;;;;5056624;28;20952;-67
2021/06/20 11:38:31;;;;;;;15.47;6.23;;;26.90;92.30;;;;;;5049304;28;20897;-67
2021/06/20 11:41:12;;;;;;;9.20;3.83;;;26.90;93.20;;;;;;5055407;28;20443;-67
2021/06/20 11:43:41;;;;;;;4.70;2.60;;;26.90;93.80;;;;;;5060256;28;20462;-67
2021/06/20 11:46:17;;;;;;;4.47;1.80;;;27.10;96.60;;;;;;5058459;28;20460;-67
2021/06/20 11:48:54;;;;;;;2.40;1.80;;;27.30;92.30;;;;;;5059260;28;20514;-68
2021/06/20 11:51:29;;;;;;;3.33;2.23;;;27.10;92.30;;;;;;5059329;28;20995;-66
2021/06/20 11:54:08;;;;;;;3.30;2.00;;;27.30;91.80;;;;;;5058892;28;20456;-67
2021/06/20 11:56:38;;;;;;;2.53;1.63;;;27.30;91.50;;;;;;5062783;28;20876;-67
2021/06/20 11:59:05;;;;;;;4.33;2.10;;;27.40;91.60;;;;;;5061833;28;20478;-66
2021/06/20 12:01:43;;;;;;;5.40;2.00;;;27.30;93.30;;;;;;5064969;28;20442;-67
2021/06/20 12:04:10;;;;;;;2.57;1.80;;;27.40;92.80;;;;;;5049072;28;20442;-67
2021/06/20 12:06:37;;;;;;;3.30;1.97;;;27.40;92.30;;;;;;5048242;28;20471;-67
2021/06/20 12:09:06;;;;;;;3.57;2.03;;;27.30;93.20;;;;;;5057795;28;20453;-67
2021/06/20 12:11:34;;;;;;;7.80;3.50;;;27.40;92.70;;;;;;5062620;28;20454;-67
2021/06/20 12:14:02;;;;;;;8.60;4.67;;;27.30;94.30;;;;;;5049427;28;20443;-67
2021/06/20 12:16:29;;;;;;;4.37;2.80;;;27.60;93.40;;;;;;5052744;28;20478;-67
2021/06/20 12:18:57;;;;;;;6.63;2.67;;;27.50;94.10;;;;;;5051207;28;20925;-67
2021/06/20 12:21:25;;;;;;;5.47;2.20;;;27.60;91.70;;;;;;5056303;28;20969;-67
2021/06/20 12:23:54;;;;;;;3.77;1.87;;;27.40;91.90;;;;;;5053560;28;20851;-68
2021/06/20 12:26:28;;;;;;;5.07;1.90;;;27.40;91.10;;;;;;5054673;28;20463;-67
2021/06/20 12:28:55;;;;;;;2.90;1.90;;;27.40;91.30;;;;;;5057504;28;20437;-67
2021/06/20 12:31:25;;;;;;;4.83;2.27;;;27.40;90.30;;;;;;5057695;28;20881;-67
2021/06/20 12:34:02;;;;;;;4.80;2.50;;;27.50;90.20;;;;;;5049741;28;20972;-68
2021/06/20 12:36:30;;;;;;;5.70;2.20;;;27.50;90.90;;;;;;5064002;28;20485;-67
2021/06/20 12:38:59;;;;;;;5.00;2.00;;;27.70;91.20;;;;;;5063766;28;20481;-67
2021/06/20 12:41:27;;;;;;;3.70;1.80;;;27.70;87.30;;;;;;5065508;28;20501;-67
2021/06/20 12:44:02;;;;;;;5.53;2.67;;;27.80;87.10;;;;;;5060011;28;20460;-67
2021/06/20 12:46:32;;;;;;;3.80;1.83;;;27.60;87.70;;;;;;5072390;28;20465;-67
2021/06/20 12:49:05;;;;;;;8.70;2.07;;;27.70;85.30;;;;;;5070945;28;20434;-67
2021/06/20 12:51:37;;;;;;;3.50;2.27;;;27.60;85.40;;;;;;5064722;28;20466;-67